Time;durP1;ratioP1;P1;durP2;ratioP2;P2;SDS_P1;SDS_P2;PMS_P1;PMS_P2;Temp;Humidity;BMP_temperature;BMP_pressure;BME280_temperature;BME280_humidity;BME280_pressure;Samples;Min_cycle;Max_cycle;Signal;HPM_P1;HPM_P2
2023/04/16 00:00:23;;;;;;;6.95;4.47;;;;;;;7.61;92.36;100170.97;1672130;84;25969;-56
2023/04/16 00:02:51;;;;;;;7.10;4.17;;;;;;;7.61;92.39;100174.19;1670694;85;25662;-59
2023/04/16 00:05:17;;;;;;;5.67;4.15;;;;;;;7.62;92.51;100177.15;1672289;85;25684;-57
2023/04/16 00:07:43;;;;;;;11.63;5.12;;;;;;;7.59;92.54;100171.79;1671013;85;27442;-55
2023/04/16 00:10:10;;;;;;;9.65;4.78;;;;;;;7.61;92.59;100167.46;1673533;85;33265;-56
2023/04/16 00:12:37;;;;;;;6.42;4.12;;;;;;;7.61;92.61;100179.58;1668326;85;25737;-56
2023/04/16 00:15:07;;;;;;;6.67;4.70;;;;;;;7.57;92.64;100173.98;1658593;85;26619;-56
2023/04/16 00:17:33;;;;;;;7.22;4.92;;;;;;;7.55;92.71;100178.86;1656706;85;25653;-57
2023/04/16 00:20:00;;;;;;;10.08;4.72;;;;;;;7.54;92.80;100186.66;1680829;85;27450;-57
2023/04/16 00:22:26;;;;;;;7.35;5.33;;;;;;;7.53;92.88;100181.60;1680603;85;25496;-56
2023/04/16 00:24:53;;;;;;;9.85;5.55;;;;;;;7.51;93.25;100177.85;1680348;85;25708;-57
2023/04/16 00:27:20;;;;;;;8.45;5.85;;;;;;;7.50;92.99;100178.14;1679913;85;25756;-56
2023/04/16 00:29:48;;;;;;;6.90;4.83;;;;;;;7.48;93.08;100171.70;1680972;84;25424;-57
2023/04/16 00:32:16;;;;;;;8.65;5.90;;;;;;;7.47;93.37;100168.73;1680893;85;27430;-57
2023/04/16 00:34:42;;;;;;;8.88;4.87;;;;;;;7.47;93.31;100172.25;1680818;85;25632;-56
2023/04/16 00:37:10;;;;;;;7.08;5.25;;;;;;;7.47;93.48;100170.91;1661705;85;25572;-53
2023/04/16 00:39:36;;;;;;;7.00;4.58;;;;;;;7.47;93.48;100174.12;1650374;86;25634;-56
2023/04/16 00:42:05;;;;;;;8.60;5.08;;;;;;;7.47;93.79;100171.43;1650434;87;25580;-56
2023/04/16 00:44:34;;;;;;;7.85;4.90;;;;;;;7.46;93.74;100180.06;1659828;85;27469;-57
2023/04/16 00:47:01;;;;;;;8.73;6.08;;;;;;;7.46;93.69;100177.37;1679864;85;25425;-57
2023/04/16 00:49:30;;;;;;;8.30;5.17;;;;;;;7.46;93.87;100175.23;1680918;85;25623;-57
2023/04/16 00:51:56;;;;;;;;;;;;;;;7.45;93.87;100172.27;1683386;85;25668;-57
2023/04/16 00:54:26;;;;;;;8.05;5.65;;;;;;;7.44;94.01;100171.48;1680914;85;32411;-55
2023/04/16 00:56:52;;;;;;;8.40;5.87;;;;;;;7.47;94.14;100176.29;1680929;85;27486;-57
2023/04/16 00:59:22;;;;;;;8.88;6.03;;;;;;;7.49;94.20;100177.31;1680785;85;25651;-57
2023/04/16 01:01:48;;;;;;;;;;;;;;;7.49;94.09;100180.01;1683482;85;25661;-57
2023/04/16 01:04:14;;;;;;;8.05;5.75;;;;;;;7.51;94.29;100172.99;1653440;85;26379;-57
2023/04/16 01:06:41;;;;;;;11.70;6.15;;;;;;;7.51;94.38;100174.34;1680936;85;25480;-57
2023/04/16 01:09:09;;;;;;;9.93;5.03;;;;;;;7.52;94.56;100178.64;1658278;85;27389;-57
2023/04/16 01:11:36;;;;;;;8.33;5.72;;;;;;;7.53;94.55;100180.25;1680812;85;25931;-57
2023/04/16 01:14:05;;;;;;;9.03;6.05;;;;;;;7.53;94.62;100177.56;1656659;85;25563;-55
2023/04/16 01:16:33;;;;;;;7.15;5.60;;;;;;;7.54;94.61;100177.80;1671197;85;25673;-56
2023/04/16 01:18:59;;;;;;;9.03;6.05;;;;;;;7.54;94.51;100174.55;1658337;85;25430;-57
2023/04/16 01:21:26;;;;;;;8.75;5.70;;;;;;;7.56;94.54;100168.88;1650091;87;27351;-57
2023/04/16 01:23:53;;;;;;;7.20;5.37;;;;;;;7.59;94.63;100173.69;1657979;85;27163;-57
2023/04/16 01:26:20;;;;;;;7.22;5.17;;;;;;;7.60;94.46;100172.61;1664447;84;25559;-57
2023/04/16 01:28:48;;;;;;;7.95;5.58;;;;;;;7.60;94.42;100177.44;1663545;85;25668;-57
2023/04/16 01:31:14;;;;;;;8.23;5.70;;;;;;;7.61;94.39;100175.02;1658442;85;25545;-58
2023/04/16 01:33:42;;;;;;;8.45;4.90;;;;;;;7.64;94.40;100180.34;1667290;84;27278;-57
2023/04/16 01:36:08;;;;;;;7.35;5.03;;;;;;;7.64;94.39;100185.72;1673143;85;27169;-57
2023/04/16 01:38:34;;;;;;;7.90;5.00;;;;;;;7.66;94.36;100186.23;1673279;85;30118;-57
2023/04/16 01:41:00;;;;;;;7.30;5.12;;;;;;;7.67;94.24;100186.50;1673144;85;25855;-57
2023/04/16 01:43:28;;;;;;;6.78;4.25;;;;;;;7.67;94.21;100178.42;1660963;85;25580;-57
2023/04/16 01:46:21;;;;;;;6.67;4.40;;;;;;;7.66;94.16;100177.62;1661940;85;28018;-57
2023/04/16 01:48:53;;;;;;;6.97;4.28;;;;;;;7.67;94.13;100179.77;1647993;86;25429;-58
2023/04/16 01:51:18;;;;;;;7.15;4.30;;;;;;;7.66;93.97;100176.81;1647709;86;25522;-58
2023/04/16 01:53:45;;;;;;;8.20;4.60;;;;;;;7.65;93.94;100185.44;1663925;85;25713;-57
2023/04/16 01:56:11;;;;;;;8.95;4.65;;;;;;;7.65;93.88;100187.34;1662419;85;25692;-57
2023/04/16 01:58:37;;;;;;;6.92;4.78;;;;;;;7.62;93.90;100190.05;1649523;85;28019;-58
2023/04/16 02:01:05;;;;;;;5.78;4.58;;;;;;;7.61;93.93;100191.16;1641488;86;25661;-58
2023/04/16 02:03:34;;;;;;;5.47;4.50;;;;;;;7.60;93.94;100196.28;1567829;89;25661;-59
2023/04/16 02:06:01;;;;;;;5.65;4.70;;;;;;;7.62;94.04;100195.99;1624798;88;27753;-56
2023/04/16 02:08:27;;;;;;;5.72;4.50;;;;;;;7.61;94.10;100195.72;1668364;85;25622;-56
2023/04/16 02:10:53;;;;;;;8.63;5.28;;;;;;;7.62;94.14;100196.78;1666745;85;27341;-57
2023/04/16 02:13:19;;;;;;;6.87;4.67;;;;;;;7.65;94.20;100202.14;1675328;84;25542;-57
2023/04/16 02:15:49;;;;;;;6.05;5.20;;;;;;;7.64;94.15;100200.53;1696297;84;25669;-55
2023/04/16 02:18:19;;;;;;;9.03;5.12;;;;;;;7.65;94.04;100201.59;1664270;84;25603;-55
2023/04/16 02:20:48;;;;;;;6.95;5.65;;;;;;;7.64;93.99;100207.27;1664316;84;25624;-56
2023/04/16 02:23:17;;;;;;;7.80;5.17;;;;;;;7.63;94.01;100204.34;1696299;84;29585;-53
2023/04/16 02:25:47;;;;;;;5.45;3.33;;;;;;;7.60;93.79;100208.39;1696404;84;25468;-55
2023/04/16 02:28:17;;;;;;;6.35;5.03;;;;;;;7.57;93.80;100201.45;1696389;84;25630;-56
2023/04/16 02:30:45;;;;;;;7.70;5.78;;;;;;;7.55;93.79;100209.81;1685880;84;25684;-56
2023/04/16 02:33:14;;;;;;;8.00;5.20;;;;;;;7.51;93.83;100216.05;1657799;84;25435;-56
2023/04/16 02:35:41;;;;;;;7.67;4.97;;;;;;;7.48;93.98;100215.55;1677139;84;33516;-57
2023/04/16 02:38:09;;;;;;;8.08;4.87;;;;;;;7.48;93.97;100217.45;1676217;85;25627;-54
2023/04/16 02:40:35;;;;;;;8.45;4.80;;;;;;;7.47;94.01;100223.39;1655692;85;25509;-56
2023/04/16 02:43:01;;;;;;;6.83;5.10;;;;;;;7.46;93.97;100223.67;1676291;84;25687;-54
2023/04/16 02:45:27;;;;;;;8.08;5.62;;;;;;;7.42;94.15;100223.98;1681633;84;25486;-56
2023/04/16 02:47:53;;;;;;;8.23;5.47;;;;;;;7.40;94.19;100228.30;1673309;84;28102;-55
2023/04/16 02:50:19;;;;;;;8.03;5.37;;;;;;;7.39;94.31;100228.06;1672960;85;33720;-56
2023/04/16 02:52:47;;;;;;;7.22;5.40;;;;;;;7.40;94.59;100229.65;1661817;85;25571;-55
2023/04/16 02:55:14;;;;;;;7.53;5.17;;;;;;;7.40;94.51;100229.65;1677251;84;25691;-57
2023/04/16 02:57:41;;;;;;;8.83;6.33;;;;;;;7.40;94.55;100233.69;1679614;84;25476;-57
2023/04/16 03:00:12;;;;;;;7.25;5.72;;;;;;;7.39;94.46;100239.35;1656920;85;27362;-57
2023/04/16 03:02:38;;;;;;;7.95;6.35;;;;;;;7.36;94.27;100248.02;1680251;84;25479;-54
2023/04/16 03:05:08;;;;;;;9.40;6.92;;;;;;;7.34;94.34;100251.52;1674999;85;25455;-55
2023/04/16 03:07:35;;;;;;;8.58;6.65;;;;;;;7.32;94.47;100251.02;1676313;85;25689;-54
2023/04/16 03:10:01;;;;;;;9.35;7.22;;;;;;;7.31;94.55;100255.61;1676320;85;25634;-56
2023/04/16 03:12:29;;;;;;;10.60;7.17;;;;;;;7.30;94.59;100247.27;1676203;85;27266;-56
2023/04/16 03:14:59;;;;;;;10.43;7.17;;;;;;;7.29;94.61;100256.45;1681121;84;25651;-57
2023/04/16 03:17:25;;;;;;;10.72;7.30;;;;;;;7.27;94.63;100258.08;1674253;85;25468;-58
2023/04/16 03:19:51;;;;;;;10.90;7.75;;;;;;;7.25;94.60;100263.47;1655344;85;34729;-58
2023/04/16 03:22:17;;;;;;;10.30;6.87;;;;;;;7.22;94.65;100258.14;1663180;85;25651;-58
2023/04/16 03:24:44;;;;;;;8.63;6.92;;;;;;;7.21;94.81;100253.83;1660635;85;28001;-57
2023/04/16 03:27:10;;;;;;;9.50;6.70;;;;;;;7.22;94.96;100258.66;1666313;84;25756;-58
2023/04/16 03:29:40;;;;;;;12.88;7.00;;;;;;;7.19;94.86;100261.95;1675087;84;25645;-58
2023/04/16 03:32:06;;;;;;;11.18;7.10;;;;;;;7.17;95.29;100262.23;1676255;85;26160;-58
2023/04/16 03:34:32;;;;;;;11.20;7.17;;;;;;;7.15;95.39;100254.17;1680438;84;25457;-57
2023/04/16 03:36:59;;;;;;;10.10;6.78;;;;;;;7.12;95.32;100260.94;1682593;84;28160;-57
2023/04/16 03:39:26;;;;;;;9.90;6.40;;;;;;;7.14;95.55;100257.97;1674116;85;25630;-57
2023/04/16 03:41:52;;;;;;;11.40;7.25;;;;;;;7.11;95.60;100258.78;1673780;85;25722;-57
2023/04/16 03:44:22;;;;;;;10.03;7.00;;;;;;;7.11;95.64;100256.64;1672893;85;25623;-58
2023/04/16 03:46:48;;;;;;;14.60;7.80;;;;;;;7.11;95.72;100254.74;1673158;85;25488;-58
2023/04/16 03:49:14;;;;;;;11.15;7.30;;;;;;;7.13;95.69;100253.11;1649554;85;27408;-56
2023/04/16 03:51:40;;;;;;;12.78;8.03;;;;;;;7.14;96.03;100252.59;1673339;85;25511;-57
2023/04/16 03:54:06;;;;;;;12.35;7.78;;;;;;;7.14;95.93;100258.77;1672169;85;25646;-58
2023/04/16 03:56:32;;;;;;;13.98;8.80;;;;;;;7.15;96.10;100251.48;1672474;85;25828;-58
2023/04/16 03:58:58;;;;;;;14.38;8.43;;;;;;;7.16;96.16;100259.27;1649654;85;25478;-57
2023/04/16 04:01:24;;;;;;;14.90;9.13;;;;;;;7.16;96.10;100259.83;1676170;85;27391;-58
2023/04/16 04:03:50;;;;;;;11.90;7.60;;;;;;;7.17;96.21;100257.37;1676122;85;25398;-57
2023/04/16 04:06:17;;;;;;;15.05;8.93;;;;;;;7.18;96.26;100261.67;1666515;84;30139;-58
2023/04/16 04:08:43;;;;;;;14.15;7.95;;;;;;;7.17;96.21;100256.03;1676491;84;25599;-58
2023/04/16 04:11:09;;;;;;;12.05;8.20;;;;;;;7.18;96.39;100253.61;1671233;85;25650;-58
2023/04/16 04:13:37;;;;;;;16.05;9.93;;;;;;;7.21;96.36;100255.73;1668784;85;27355;-57
2023/04/16 04:16:07;;;;;;;14.75;9.45;;;;;;;7.22;96.48;100259.48;1678497;85;25638;-58
2023/04/16 04:18:33;;;;;;;17.48;10.32;;;;;;;7.22;96.53;100260.83;1681025;85;25586;-55
2023/04/16 04:20:59;;;;;;;17.85;9.88;;;;;;;7.23;96.50;100274.52;1680877;83;34736;-58
2023/04/16 04:23:27;;;;;;;16.77;9.73;;;;;;;7.27;96.64;100266.67;1681380;84;25653;-57
2023/04/16 04:25:54;;;;;;;17.57;10.75;;;;;;;7.26;96.51;100271.81;1680881;85;27365;-58
2023/04/16 04:28:20;;;;;;;14.68;9.05;;;;;;;7.26;96.34;100277.19;1680802;85;25672;-58
2023/04/16 04:30:47;;;;;;;16.93;10.30;;;;;;;7.25;96.42;100279.09;1680882;85;25654;-58
2023/04/16 04:33:13;;;;;;;15.60;9.70;;;;;;;7.24;96.36;100284.20;1680795;85;25628;-58
2023/04/16 04:35:39;;;;;;;16.45;9.75;;;;;;;7.25;96.60;100287.16;1680911;85;25421;-57
2023/04/16 04:38:06;;;;;;;19.75;10.70;;;;;;;7.25;96.44;100289.85;1680887;84;27368;-57
2023/04/16 04:40:32;;;;;;;17.23;9.78;;;;;;;7.27;96.67;100281.47;1680858;85;25759;-58
2023/04/16 04:42:58;;;;;;;16.45;9.78;;;;;;;7.27;96.49;100292.23;1680811;85;25602;-57
2023/04/16 04:45:25;;;;;;;20.32;11.25;;;;;;;7.27;96.58;100291.70;1680824;85;25640;-58
2023/04/16 04:47:55;;;;;;;19.48;11.78;;;;;;;7.30;96.51;100295.70;1680946;85;25597;-58
2023/04/16 04:50:24;;;;;;;19.95;10.75;;;;;;;7.31;96.52;100295.97;1681047;85;27400;-58
2023/04/16 04:52:50;;;;;;;19.30;11.15;;;;;;;7.36;96.79;100301.84;1680824;85;25669;-58
2023/04/16 04:55:19;;;;;;;16.67;11.03;;;;;;;7.41;96.94;100306.61;1680869;85;25674;-58
2023/04/16 04:57:45;;;;;;;;;;;;;;;7.45;96.79;100318.39;1683328;85;25677;-58
2023/04/16 05:00:15;;;;;;;17.75;10.65;;;;;;;7.47;96.34;100320.28;1680886;85;32362;-58
2023/04/16 05:02:41;;;;;;;15.43;9.83;;;;;;;7.45;95.90;100316.25;1659234;85;27296;-58
2023/04/16 05:05:10;;;;;;;16.70;10.10;;;;;;;7.45;95.98;100322.43;1680756;85;25618;-58
2023/04/16 05:07:36;;;;;;;15.40;9.90;;;;;;;7.43;95.69;100321.92;1665378;84;25585;-57
2023/04/16 05:10:05;;;;;;;19.77;10.55;;;;;;;7.44;95.74;100325.41;1672455;85;35088;-58
2023/04/16 05:12:32;;;;;;;16.95;10.45;;;;;;;7.44;95.71;100317.33;1671330;85;25506;-57
2023/04/16 05:14:58;;;;;;;15.95;9.45;;;;;;;7.43;95.74;100319.23;1641207;86;27338;-55
2023/04/16 05:17:24;;;;;;;17.07;10.35;;;;;;;7.44;95.62;100324.06;1649997;86;25426;-58
2023/04/16 05:19:52;;;;;;;17.32;10.55;;;;;;;7.45;95.62;100323.78;1656322;85;25748;-54
2023/04/16 05:22:18;;;;;;;17.15;10.18;;;;;;;7.43;95.57;100325.16;1661883;85;25627;-54
2023/04/16 05:24:45;;;;;;;15.45;8.85;;;;;;;7.41;95.61;100326.80;1662398;85;25600;-53
2023/04/16 05:27:11;;;;;;;13.78;9.18;;;;;;;7.45;95.76;100333.20;1679883;85;27367;-53
2023/04/16 05:29:37;;;;;;;14.47;9.20;;;;;;;7.46;95.61;100332.12;1678159;85;25625;-54
2023/04/16 05:32:05;;;;;;;19.23;9.98;;;;;;;7.49;95.64;100338.80;1656449;85;25631;-54
2023/04/16 05:34:31;;;;;;;15.65;9.08;;;;;;;7.52;95.81;100340.13;1673952;85;25621;-53
2023/04/16 05:36:57;;;;;;;12.82;8.13;;;;;;;7.53;95.76;100335.81;1677064;85;25508;-57
2023/04/16 05:39:24;;;;;;;12.70;8.90;;;;;;;7.57;95.86;100334.69;1676777;82;27385;-54
2023/04/16 05:41:52;;;;;;;16.02;9.75;;;;;;;7.61;95.92;100339.22;1675152;85;25468;-54
2023/04/16 05:44:18;;;;;;;14.07;8.90;;;;;;;7.64;95.61;100333.80;1677324;85;25460;-54
2023/04/16 05:46:44;;;;;;;14.68;9.58;;;;;;;7.70;95.87;100335.89;1662914;85;27850;-56
2023/04/16 05:49:12;;;;;;;13.35;8.83;;;;;;;7.75;95.86;100335.83;1665519;85;25568;-57
2023/04/16 05:51:38;;;;;;;13.60;8.03;;;;;;;7.75;95.40;100335.28;1680811;85;27459;-54
2023/04/16 05:54:04;;;;;;;16.07;8.43;;;;;;;7.79;94.91;100346.27;1680298;85;27275;-53
2023/04/16 05:56:30;;;;;;;11.08;7.62;;;;;;;7.81;94.92;100342.73;1680018;85;25421;-58
2023/04/16 05:58:57;;;;;;;13.43;8.13;;;;;;;7.81;94.83;100347.56;1680228;85;27868;-58
2023/04/16 06:01:25;;;;;;;14.18;9.55;;;;;;;7.81;94.51;100345.43;1663454;85;32330;-57
2023/04/16 06:03:51;;;;;;;14.70;8.60;;;;;;;7.83;94.67;100351.32;1663606;85;27335;-57
2023/04/16 06:06:17;;;;;;;14.53;9.55;;;;;;;7.85;94.41;100353.20;1658248;85;25444;-54
2023/04/16 06:08:43;;;;;;;18.50;8.90;;;;;;;7.83;94.37;100349.45;1650366;86;25665;-53
2023/04/16 06:11:10;;;;;;;15.30;8.20;;;;;;;7.84;94.25;100355.63;1655536;85;25688;-54
2023/04/16 06:13:39;;;;;;;12.00;8.13;;;;;;;7.84;94.01;100356.98;1654101;86;25752;-58
2023/04/16 06:16:07;;;;;;;15.78;8.88;;;;;;;7.85;94.13;100358.59;1652848;85;27344;-54
2023/04/16 06:18:34;;;;;;;11.88;8.58;;;;;;;7.88;94.55;100357.20;1674871;85;25658;-54
2023/04/16 06:21:00;;;;;;;14.18;8.80;;;;;;;7.93;94.72;100360.62;1676319;85;25483;-57
2023/04/16 06:23:26;;;;;;;15.50;9.75;;;;;;;7.96;94.66;100345.23;1676367;85;26368;-58
2023/04/16 06:25:53;;;;;;;17.07;9.50;;;;;;;8.01;94.54;100359.19;1676452;85;25461;-54
2023/04/16 06:28:24;;;;;;;14.80;8.98;;;;;;;8.08;94.69;100360.17;1674670;85;28025;-57
2023/04/16 06:30:50;;;;;;;;;;;;;;;8.16;94.75;100364.36;1675710;85;25444;-58
2023/04/16 06:33:16;;;;;;;17.85;8.65;;;;;;;8.20;94.50;100358.63;1676391;85;30058;-54
2023/04/16 06:35:42;;;;;;;12.68;7.37;;;;;;;8.29;94.83;100361.50;1665687;85;25639;-57
2023/04/16 06:38:08;;;;;;;13.45;8.58;;;;;;;8.34;93.55;100357.91;1670128;85;25477;-58
2023/04/16 06:40:36;;;;;;;13.13;8.25;;;;;;;8.37;93.27;100357.33;1672668;85;27342;-58
2023/04/16 06:43:06;;;;;;;13.28;8.45;;;;;;;8.39;93.09;100351.92;1662265;85;25563;-54
2023/04/16 06:45:33;;;;;;;;;;;;;;;8.51;94.32;100359.59;1675619;85;25432;-56
2023/04/16 06:48:02;;;;;;;13.65;9.18;;;;;;;8.62;93.51;100356.73;1677994;85;25845;-58
2023/04/16 06:50:29;;;;;;;13.80;8.90;;;;;;;8.71;93.62;100359.00;1685150;85;25594;-58
2023/04/16 06:52:57;;;;;;;13.03;8.43;;;;;;;8.84;93.74;100357.45;1679483;85;27970;-59
2023/04/16 06:55:23;;;;;;;12.47;8.00;;;;;;;8.95;93.39;100362.91;1679349;85;25489;-59
2023/04/16 06:57:49;;;;;;;13.10;7.90;;;;;;;9.04;92.66;100364.38;1680676;85;25412;-57
2023/04/16 07:00:19;;;;;;;11.85;7.53;;;;;;;9.11;92.49;100372.91;1646198;85;25573;-59
2023/04/16 07:02:45;;;;;;;12.75;7.20;;;;;;;9.15;90.78;100369.86;1684032;85;25620;-57
2023/04/16 07:05:12;;;;;;;10.63;7.15;;;;;;;9.14;90.25;100369.59;1686446;85;27362;-57
2023/04/16 07:07:38;;;;;;;12.20;7.70;;;;;;;9.17;90.41;100373.05;1682984;85;25391;-57
2023/04/16 07:10:08;;;;;;;11.43;7.28;;;;;;;9.26;90.78;100375.86;1663976;85;25615;-59
2023/04/16 07:12:36;;;;;;;12.75;8.45;;;;;;;9.30;90.21;100380.38;1686645;85;25613;-57
2023/04/16 07:15:07;;;;;;;13.85;9.50;;;;;;;9.38;90.68;100378.90;1682310;85;25397;-58
2023/04/16 07:17:33;;;;;;;11.80;8.20;;;;;;;9.45;90.38;100379.30;1673859;85;27339;-58
2023/04/16 07:20:00;;;;;;;8.93;7.15;;;;;;;9.45;89.02;100377.95;1663714;85;25418;-58
2023/04/16 07:22:26;;;;;;;11.12;8.50;;;;;;;9.43;87.75;100386.91;1648969;85;25599;-59
2023/04/16 07:24:52;;;;;;;11.15;8.03;;;;;;;9.38;88.32;100386.17;1654688;85;25965;-59
2023/04/16 07:27:18;;;;;;;11.20;8.15;;;;;;;9.38;88.45;100384.83;1646787;86;25677;-59
2023/04/16 07:29:44;;;;;;;10.55;7.87;;;;;;;9.43;88.66;100399.05;1639711;86;27325;-59
2023/04/16 07:32:12;;;;;;;12.82;8.95;;;;;;;9.48;88.74;100394.09;1648648;86;25393;-58
2023/04/16 07:34:38;;;;;;;11.95;8.88;;;;;;;9.49;87.78;100398.41;1646802;86;25474;-59
2023/04/16 07:37:05;;;;;;;12.23;8.78;;;;;;;9.48;87.76;100403.53;1648090;85;25595;-59
2023/04/16 07:39:31;;;;;;;10.90;7.37;;;;;;;9.54;88.17;100407.20;1643743;86;25519;-58
2023/04/16 07:41:57;;;;;;;13.32;9.45;;;;;;;9.56;86.91;100398.00;1591773;88;27711;-57
2023/04/16 07:44:23;;;;;;;13.95;12.55;;;;;;;9.55;87.10;100406.64;1627867;88;25590;-59
2023/04/16 07:46:50;;;;;;;20.70;19.07;;;;;;;9.56;86.42;100407.46;1647802;86;25555;-58
2023/04/16 07:49:16;;;;;;;67.32;62.78;;;;;;;9.53;86.44;100406.97;1667437;85;25685;-57
2023/04/16 07:51:42;;;;;;;74.17;69.07;;;;;;;9.56;86.26;100410.16;1667461;85;25577;-58
2023/04/16 07:54:10;;;;;;;59.15;54.98;;;;;;;9.57;86.27;100416.61;1673611;85;27384;-58
2023/04/16 07:56:38;;;;;;;12.23;7.50;;;;;;;9.58;86.46;100412.00;1672609;85;25931;-58
2023/04/16 07:59:04;;;;;;;10.30;8.33;;;;;;;9.65;87.10;100417.28;1656251;85;25425;-58
2023/04/16 08:01:30;;;;;;;10.50;7.35;;;;;;;9.76;86.89;100418.43;1664085;85;27752;-58
2023/04/16 08:03:57;;;;;;;13.80;12.40;;;;;;;9.82;86.81;100415.86;1671785;85;25593;-60
2023/04/16 08:06:25;;;;;;;12.88;8.33;;;;;;;9.90;86.62;100420.00;1672758;85;27352;-58
2023/04/16 08:08:52;;;;;;;9.25;7.42;;;;;;;9.98;86.52;100421.22;1660375;85;25809;-58
2023/04/16 08:11:18;;;;;;;10.00;7.30;;;;;;;10.06;86.36;100425.91;1642823;86;25489;-57
2023/04/16 08:13:44;;;;;;;9.25;7.72;;;;;;;10.16;86.49;100428.14;1670822;85;25921;-57
2023/04/16 08:16:11;;;;;;;9.85;7.10;;;;;;;10.20;85.27;100433.18;1672154;85;25424;-57
2023/04/16 08:18:37;;;;;;;9.13;6.47;;;;;;;10.23;85.63;100436.11;1673033;85;27437;-58
2023/04/16 08:21:03;;;;;;;11.28;7.72;;;;;;;10.28;84.65;100439.23;1663160;85;26015;-59
2023/04/16 08:23:30;;;;;;;14.20;7.85;;;;;;;10.28;84.65;100436.53;1674709;85;25409;-56
2023/04/16 08:25:56;;;;;;;13.22;8.48;;;;;;;10.33;84.71;100438.36;1663182;85;25718;-58
2023/04/16 08:28:23;;;;;;;12.78;10.93;;;;;;;10.36;84.59;100437.20;1657297;85;25578;-57
2023/04/16 08:30:49;;;;;;;30.70;28.00;;;;;;;10.43;84.90;100442.98;1658285;85;27370;-58
2023/04/16 08:33:16;;;;;;;9.78;7.70;;;;;;;10.47;83.80;100445.88;1670500;85;25795;-57
2023/04/16 08:35:42;;;;;;;12.28;8.48;;;;;;;10.45;83.71;100450.27;1663312;85;25610;-57
2023/04/16 08:38:08;;;;;;;9.65;7.62;;;;;;;10.46;83.36;100447.79;1664116;85;25488;-58
2023/04/16 08:40:40;;;;;;;15.28;7.87;;;;;;;10.46;83.10;100441.03;1661330;85;25650;-56
2023/04/16 08:43:11;;;;;;;10.53;7.80;;;;;;;10.49;83.23;100439.64;1663849;85;28208;-61
2023/04/16 08:45:38;;;;;;;11.15;7.87;;;;;;;10.49;82.10;100447.75;1670408;85;25472;-62
2023/04/16 08:48:06;;;;;;;10.85;8.10;;;;;;;10.45;81.69;100446.74;1663565;85;25496;-61
2023/04/16 08:50:33;;;;;;;10.70;8.50;;;;;;;10.38;81.60;100455.27;1645863;86;26279;-62
2023/04/16 08:53:06;;;;;;;12.40;8.50;;;;;;;10.32;81.16;100459.73;1648414;86;25666;-60
2023/04/16 08:55:40;;;;;;;10.98;7.78;;;;;;;10.28;81.46;100448.70;1648615;86;27463;-59
2023/04/16 08:58:13;;;;;;;10.10;7.67;;;;;;;10.29;82.29;100452.45;1666404;85;25458;-60
2023/04/16 09:00:40;;;;;;;11.48;7.95;;;;;;;10.31;81.42;100452.15;1673868;85;25525;-60
2023/04/16 09:03:09;;;;;;;11.70;8.35;;;;;;;10.36;82.28;100458.83;1660995;85;25631;-59
2023/04/16 09:05:37;;;;;;;12.90;8.53;;;;;;;10.43;82.50;100457.06;1664949;85;25511;-58
2023/04/16 09:08:06;;;;;;;13.43;8.13;;;;;;;10.62;82.53;100478.55;1664430;85;27332;-59
2023/04/16 09:10:34;;;;;;;15.05;8.53;;;;;;;10.62;82.67;100463.15;1647382;86;25549;-60
2023/04/16 09:13:00;;;;;;;12.47;8.53;;;;;;;10.73;81.98;100469.69;1627926;85;25518;-58
2023/04/16 09:15:28;;;;;;;10.98;8.50;;;;;;;10.80;82.14;100469.48;1672488;85;25630;-61
2023/04/16 09:17:57;;;;;;;9.78;7.75;;;;;;;10.91;81.74;100468.69;1672743;85;26250;-61
2023/04/16 09:20:25;;;;;;;11.60;8.08;;;;;;;11.03;80.98;100474.37;1664153;85;28146;-60
2023/04/16 09:22:51;;;;;;;10.45;8.10;;;;;;;11.11;81.31;100475.53;1668246;85;25658;-60
2023/04/16 09:25:21;;;;;;;11.18;7.78;;;;;;;11.19;79.83;100474.00;1649344;85;25475;-62
2023/04/16 09:27:50;;;;;;;10.28;8.20;;;;;;;11.29;80.37;100471.05;1648047;86;25643;-61
2023/04/16 09:30:26;;;;;;;11.65;7.97;;;;;;;11.36;79.75;100470.05;1648028;86;25682;-59
2023/04/16 09:33:15;;;;;;;10.35;8.15;;;;;;;11.45;79.47;100481.49;1647608;86;27470;-61
2023/04/16 09:35:48;;;;;;;10.93;7.80;;;;;;;11.44;78.19;100489.36;1668144;85;25811;-60
2023/04/16 09:38:15;;;;;;;11.10;8.38;;;;;;;11.36;78.22;100483.59;1657633;85;25575;-60
2023/04/16 09:40:42;;;;;;;10.43;8.05;;;;;;;11.33;77.63;100486.91;1666491;85;25646;-60
2023/04/16 09:43:15;;;;;;;9.38;7.45;;;;;;;11.40;79.02;100483.20;1646691;86;25614;-59
2023/04/16 09:45:53;;;;;;;9.58;8.13;;;;;;;11.48;78.79;100487.08;1649866;86;27362;-61
2023/04/16 09:48:33;;;;;;;10.93;8.05;;;;;;;11.63;79.50;100493.20;1652378;85;25652;-61
2023/04/16 09:51:00;;;;;;;10.75;8.55;;;;;;;11.75;78.84;100490.73;1648054;86;25576;-60
2023/04/16 09:53:29;;;;;;;11.78;8.60;;;;;;;11.84;78.66;100492.92;1671751;85;25819;-63
2023/04/16 09:56:03;;;;;;;10.38;8.23;;;;;;;11.96;78.79;100493.72;1649293;86;25672;-60
2023/04/16 09:58:30;;;;;;;12.37;8.43;;;;;;;12.04;78.50;100499.73;1648942;85;27344;-61
2023/04/16 10:01:07;;;;;;;10.82;8.58;;;;;;;12.14;78.04;100506.22;1649775;86;25689;-64
2023/04/16 10:03:36;;;;;;;11.12;8.25;;;;;;;12.22;77.21;100505.20;1647663;86;25474;-62
2023/04/16 10:06:14;;;;;;;10.93;7.08;;;;;;;12.15;76.53;100502.95;1647368;86;26173;-63
2023/04/16 10:08:51;;;;;;;9.48;8.00;;;;;;;12.08;75.75;100499.34;1674157;85;25442;-62
2023/04/16 10:11:20;;;;;;;10.38;7.72;;;;;;;12.10;75.49;100503.09;1667010;85;28019;-64
2023/04/16 10:13:48;;;;;;;10.43;7.75;;;;;;;12.04;75.18;100506.52;1650453;86;25601;-63
2023/04/16 10:16:15;;;;;;;13.68;8.20;;;;;;;11.98;75.23;100511.81;1661688;85;25472;-63
2023/04/16 10:18:45;;;;;;;10.63;8.43;;;;;;;12.03;75.55;100512.24;1683542;85;25629;-62
2023/04/16 10:21:12;;;;;;;8.63;7.72;;;;;;;12.10;76.12;100512.02;1690386;84;25569;-62
2023/04/16 10:23:39;;;;;;;10.48;9.08;;;;;;;12.24;76.63;100507.86;1688960;84;27962;-61
2023/04/16 10:26:06;;;;;;;9.45;7.58;;;;;;;12.39;76.41;100512.02;1689975;84;25571;-62
2023/04/16 10:28:34;;;;;;;13.28;8.40;;;;;;;12.48;75.69;100520.17;1689245;84;25766;-62
2023/04/16 10:31:03;;;;;;;11.60;8.08;;;;;;;12.58;75.43;100520.44;1667638;84;26112;-61
2023/04/16 10:33:34;;;;;;;11.70;8.28;;;;;;;12.59;74.20;100526.91;1689300;84;25662;-62
2023/04/16 10:36:15;;;;;;;12.75;7.85;;;;;;;12.56;74.07;100523.47;1689288;84;29536;-62
2023/04/16 10:38:48;;;;;;;8.45;7.03;;;;;;;12.66;74.34;100521.81;1668745;84;25902;-63
2023/04/16 10:41:15;;;;;;;9.98;7.30;;;;;;;12.77;74.31;100522.86;1691029;84;25508;-62
2023/04/16 10:43:45;;;;;;;16.37;9.38;;;;;;;12.75;73.02;100528.60;1691137;84;25800;-63
2023/04/16 10:46:33;;;;;;;12.18;8.03;;;;;;;12.75;72.88;100529.17;1690954;84;25675;-62
2023/04/16 10:49:02;;;;;;;8.50;7.55;;;;;;;12.76;72.90;100528.86;1691180;84;27439;-62
2023/04/16 10:51:35;;;;;;;9.90;7.80;;;;;;;12.82;73.33;100526.23;1669136;84;25633;-62
2023/04/16 10:54:13;;;;;;;11.28;8.08;;;;;;;12.93;73.44;100534.86;1691285;84;25444;-62
2023/04/16 10:56:40;;;;;;;8.85;7.67;;;;;;;13.01;72.97;100534.07;1690257;84;27799;-62
2023/04/16 10:59:12;;;;;;;10.18;7.50;;;;;;;13.10;72.49;100542.78;1691168;84;25459;-62
2023/04/16 11:01:49;;;;;;;10.15;8.00;;;;;;;13.11;71.83;100533.50;1665593;84;27298;-63
2023/04/16 11:04:24;;;;;;;8.80;7.90;;;;;;;13.18;72.31;100538.70;1691056;84;25518;-64
2023/04/16 11:07:14;;;;;;;8.70;7.22;;;;;;;13.26;71.59;100535.19;1691053;84;25593;-63
2023/04/16 11:09:55;;;;;;;;;;;;;;;13.35;71.25;100538.46;1679216;84;25581;-63
2023/04/16 11:12:34;;;;;;;10.63;7.80;;;;;;;13.44;70.94;100532.47;1691787;84;25600;-63
2023/04/16 11:15:08;;;;;;;9.35;7.92;;;;;;;13.53;70.87;100535.95;1691387;84;33557;-64
2023/04/16 11:17:42;;;;;;;7.72;6.67;;;;;;;13.67;71.13;100536.34;1682655;84;27206;-63
2023/04/16 11:20:15;;;;;;;10.30;8.05;;;;;;;13.85;71.24;100539.81;1661078;85;25564;-63
2023/04/16 11:22:44;;;;;;;9.73;7.45;;;;;;;13.92;70.30;100538.17;1616223;86;25543;-63
2023/04/16 11:25:11;;;;;;;10.70;7.33;;;;;;;14.00;70.09;100535.20;1659982;85;25491;-63
2023/04/16 11:27:38;;;;;;;8.05;6.80;;;;;;;14.14;69.77;100537.70;1583912;89;27965;-63
2023/04/16 11:30:10;;;;;;;8.35;6.95;;;;;;;14.26;69.47;100534.29;1677284;85;25723;-63